Minneapolis, Minnesota
Traffic Map
Current Weather Conditions
Minneapolis, Minnesota
Few Clouds
Few Clouds
16°
Feels Like: 16°
Wind Chill: 16° Ceiling: Unl
Heat Index: 16° Visibility: 10mi
Dew Point: 13° Wind: 6mph
Humidity: 83% Direction: 310° (NW)
Pressure: 30.13in Gusts: 0mph
Raw Report DataKMSP 291153Z 31005KT 10SM FEW060 16/13 A3013 RMK AO2 SLP201 T01610133 10178 20150 53003
Traffic Incident Summary
Active as of:
Severity:
Category:
InformationThere was an issue retrieving the traffic information for this location. Please try a different location or try again shortly.
Advertisements
Track Severe Weather on mobile